Poker Uang Asli | Poker Online | Dewa Poker

Jackpot

Texas Poker Multi Jackpot System

Kini Telah hadir Jackpot SUPER ROYAL FLUSH

Kini Telah hadir Jackpot 2000 (khusus table VIP keatas).

Ikutilah global jackpot yang tersedia di system kami, dengan system jackpot terbaru dan pertama di indonesia, anda dapat membeli jackpot dengan harga 100 rupiah saja dan menangkan hadiahnya hingga puluhan juta rupiah.

Jackpot bukanlah suatu keharusan untuk dibeli, namun kami memberikan suatu fitur tambahan untuk member tercinta dari www.satriapoker.com.

Terdapat tiga pilihan harga jackpot yang bisa anda beli yaitu :100,500,1000 dan 2000(khusus table VIP Keatas) rupiah.

Hadiah dari Multi jackpot system www.satriapoker.com

  1. full house x 10 harga jackpot yang anda beli.
      (contoh:anda membeli 1000 maka:1000 X10 = 10.000)
  2. four of kind x 250 harga jackpot yang anda beli
      (contoh:anda membeli 1000 maka:1000 X250 = 250.000)
  3. Straight flush x 1200
      (contoh:anda membeli 1000 maka:1000 X1200 = 1.200.000)
  4. Royal flush x 10000 harga jackpot yang anda beli
      (contoh:anda membeli 1000 maka:1000 X10000 = 10.000.000)
  5. SUPER ROYAL FLUSH x 30000 harga jackpot yang anda beli
      (contoh:anda membeli 1000 maka:1000 X30000 = 30.000.000)

Kondisi kartu

  1. full house adalah kondisi kartu dimana kartu anda dan kartu tengah dengan total 7 kartu bisa mendapatkan nilai 5 kartu dengan kombinasi 1 tris(three of kind) dan 1 pair, contoh 3 kartu 10 dan 2 kartu 5
  2. Four of kind adalah kondisi kartu dimana kartu anda dan kartu tengah dengan total 7 kartu bisa mendapatkan nilai 5 kartu dengan kombinasi 4 kartu yang sama jumlah dan 1 kartu apapun juga contoh anda mendapatkan 4 buah kartu angka 3 dan 1 kartu apapun.
  3. Staright flush adalah kondisi kartu dimana kartu anda dan kartu tengah dengan total 7 kartu bisa mendapatkan nilai 5 kartu dengan kombinasi seri / staright dengan kembang yang sama contoh : urutan kartu dari angka 5, 6, 7, 8 , 9 10 dengan kembang yg sama misalnya as hati
  4. Royal flush adalah kondisi kartu dimana kartu anda dan kartu tengah dengan total 7 kartu bisa mendapatkan nilai 5 kartu dengan kombinasi seri / staright dengan kembang yang sama tetapi kartu tersebut haruslah dimulai dari 10. contoh 10, Queen, Jack, King dan aces dengan kembang yang sama
  5. Super Royal flush adalah kondisi kartu dimana Kedua kartu anda digabung dengan 3 kartu pertama meja haruslah royal flush. contoh kartu anda 10,Queen kembang sama dan 3 kartu pertama meja adalah Jack, King dan aces dengan kembang yang sama

Demikian adalah penjelasan dari Multi Jackpot www.satriapoker.com terima kasih dan selamat bermain salam hoki dari kami

Texas Poker Jackpot Winner

TOP SUPER ROYAL FLUSH
No.TanggalNamaPriceWin
122/06 22:31LB996258Super Royal flush3,000,000
222/06 19:10Z2108Super Royal flush60,000,000
322/06 15:06M7H56LRCZZSuper Royal flush15,000,000
422/06 14:06ANDRAMANIHSuper Royal flush15,000,000
522/06 12:27JP_KERPOSuper Royal flush30,000,000
TOP ROYAL FLUSH
No.TanggalNamaPriceWin
123/06 01:54AN4KM4C4NRoyal flush2,000,000
223/06 01:35W1D2345Royal flush2,000,000
323/06 01:15MULI230316Royal flush2,000,000
423/06 01:04RIORIARoyal flush10,000,000
523/06 01:04E04F95B7Royal flush10,000,000
TOP STRAIGHT FLUSH
No.TanggalNamaPriceWin
123/06 01:56KONGPOStraight Flush600,000
223/06 01:54PENJOR88Straight Flush1,200,000
323/06 01:51BENX234Straight Flush1,200,000
423/06 01:51UCAUCIStraight Flush600,000
523/06 01:51LAYERS59Straight Flush600,000
LATEST JACKPOT
No.TanggalNamaPriceWin
123/06 01:58BUTE88Full House2,000
223/06 01:58XMOY1980Full House1,000
323/06 01:58Z6WK42YL5OFull House5,000
423/06 01:58CANGE87Full House1,000
523/06 01:58YANS80Full House2,000
623/06 01:58BUDAK14ULUFull House1,000
723/06 01:58CRISZONFull House10,000
823/06 01:58STAZXGQ9ISFull House2,000
923/06 01:58AE3BE40EFull House2,000
1023/06 01:58YOYO98Four Of A Kind50,000
1123/06 01:58DUITGEDE88Full House10,000
1223/06 01:58MG51706Full House10,000
1323/06 01:58H___H_____Full House2,000
1423/06 01:58TAGUK83Full House5,000
1523/06 01:58TAILALAT_2Four Of A Kind125,000
1623/06 01:58A351F5CAFull House5,000
1723/06 01:58INDO993Full House1,000
1823/06 01:58RADJA991Full House10,000
1923/06 01:58OLIVE74Full House1,000
2023/06 01:58N0AH16Full House1,000
2123/06 01:58F3A4ED71Full House2,000
2223/06 01:58IKHSAN6969Full House20,000
2323/06 01:58MALAIKHA17Full House2,000
2423/06 01:57XDBPB95UQGFull House5,000
2523/06 01:57CHATTY7Full House2,000
2623/06 01:57UTAKP1DARFull House1,000
2723/06 01:57DEKLEKFull House5,000
2823/06 01:57RAJABOGEL7Full House10,000
2923/06 01:57IJAK091Full House1,000
3023/06 01:57CANARY27Full House2,000
3123/06 01:57YNTSYMHBS2Full House10,000
3223/06 01:57SALMON789Full House2,000
3323/06 01:57D41A0FBFFull House2,000
3423/06 01:57YESIYOSFull House5,000
3523/06 01:57DREWIE13Full House20,000
3623/06 01:57PD4DJHOKLOKFull House5,000
3723/06 01:57KUMBANG911Full House500
3823/06 01:57MBEE87Full House2,000
3923/06 01:57K4MENRIDERFour Of A Kind12,500
4023/06 01:57ABCDE69Full House1,000
4123/06 01:57DRAGON__Full House1,000
4223/06 01:57LALAJAR1Full House5,000
4323/06 01:57SASAK878Full House5,000
4423/06 01:57SRTLBOLOTFull House2,000
4523/06 01:57TEMPO222Four Of A Kind50,000
4623/06 01:57JULSTELLEFull House1,000
4723/06 01:57GOMBLOOOVFull House2,000
4823/06 01:57SITUOK92Full House5,000
4923/06 01:57MARCHISIO0Full House1,000
5023/06 01:57AYUFAAFull House2,000

Domino Multi Jackpot System

Ikutilah global jackpot yang tersedia di system kami, dengan system jackpot terbaru dan pertama di indonesia, anda dapat membeli jackpot dengan harga 100 rupiah saja dan menangkan hadiahnya hingga puluhan juta rupiah.

Jackpot bukanlah suatu keharusan untuk dibeli, namun kami memberikan suatu fitur tambahan untuk member tercinta dari www.satriapoker.com.

Terdapat tiga pilihan harga jackpot yang bisa anda beli yaitu :100,500 dan 1000 rupiah.

Hadiah dari Multi jackpot system www.satriapoker.com

  1. Murni Kecil x 50 harga jackpot yang anda beli.
      (contoh:anda membeli 1000 maka:1000 X 50 = 50.000)
  2. Murni Besar x 50 harga jackpot yang anda beli
      (contoh:anda membeli 1000 maka:1000 X 50 = 50.000)
  3. BALAK x 100 harga jackpot yang anda beli
      (contoh:anda membeli 1000 maka:1000 X 100 = 100.000)
  4. ENAM DEWA x 6666 harga jackpot yang anda beli
      (contoh:anda membeli 1000 maka:1000 X 6666 = 6.666.000)

Demikian adalah penjelasan dari Multi Jackpot www.satriapoker.com terima kasih dan selamat bermain salam hoki dari kami

Domino Jackpot Winner

TOP ENAM DEWA
No.TanggalNamaPriceWin
123/06 01:53IAN38INTImurni enam6,666,000
223/06 00:04SULIS09murni enam6,666,000
322/06 22:35PUTRAALVESmurni enam666,600
422/06 20:13KATAK_88murni enam3,333,000
522/06 19:06AZKHA883murni enam6,666,000
TOP BALAK
No.TanggalNamaPriceWin
123/06 01:56M2T_AJAbalak50,000
223/06 01:55JONIWIN46balak100,000
323/06 01:54AURAGAJAH2balak100,000
423/06 01:53PYAN87balak50,000
523/06 01:52BBIJIPELERbalak10,000
LATEST JACKPOT
No.TanggalNamaPriceWin
123/06 01:57H4F5IC4YGDmurni kecil5,000
223/06 01:57KINGMAS77murni besar50,000
323/06 01:56M2T_AJAbalak50,000
423/06 01:56AGOY33murni besar50,000
523/06 01:55IMAM328murni besar50,000
623/06 01:55LIUREMASlucky99350,000
723/06 01:55JONIWIN46balak100,000
823/06 01:55AB831murni kecil50,000
923/06 01:54AURAGAJAH2balak100,000
1023/06 01:54IKI7murni besar50,000
1123/06 01:53IAN38INTImurni enam6,666,000
1223/06 01:53DBA245C6murni kecil5,000
1323/06 01:53PYAN87balak50,000
1423/06 01:52NHERmurni besar25,000
1523/06 01:52SIRUN079murni kecil50,000
1623/06 01:52POK71murni besar50,000
1723/06 01:52PUTRAALVESmurni besar25,000
1823/06 01:52BBIJIPELERbalak10,000
1923/06 01:52C208841balak50,000
2023/06 01:52C53KMA777594murni besar50,000
2123/06 01:52C1BELmurni besar50,000
2223/06 01:51RUW3TXmurni besar50,000
2323/06 01:51MAZDIKA92balak100,000
2423/06 01:50NDAZONEmurni kecil50,000
2523/06 01:50RUMAHKU999murni kecil50,000
2623/06 01:50PUTRAALVESmurni besar25,000
2723/06 01:50OHMYGOODSlucky9925,000
2823/06 01:49MONC05lucky992,500
2923/06 01:49LEGOMP99lucky9950,000
3023/06 01:49SJPOKER035murni kecil5,000
3123/06 01:49T4DUTAMAmurni kecil25,000
3223/06 01:49IJAH210murni kecil5,000
3323/06 01:49EWEHELEHNAmurni kecil50,000
3423/06 01:49SEPOSANbalak50,000
3523/06 01:48OBUR17murni kecil5,000
3623/06 01:48JNCK19murni kecil25,000
3723/06 01:48ENDRIYANTOmurni besar25,000
3823/06 01:48IW4N98murni besar5,000
3923/06 01:48FX0AVZDF8Hmurni kecil25,000
4023/06 01:47BDTONGSIbalak100,000
4123/06 01:47MBRODOL99murni kecil50,000
4223/06 01:47BORIKCSmurni besar25,000
4323/06 01:47COINDALLEmurni besar50,000
4423/06 01:47KUYING11murni kecil5,000
4523/06 01:46N42NKlucky992,500
4623/06 01:46BANGKU24murni kecil50,000
4723/06 01:46EWEHELEHNAbalak100,000
4823/06 01:46TBKGQ05TJNmurni kecil50,000
4923/06 01:45T4DROCK29murni kecil50,000
5023/06 01:45C1BELbalak100,000

Ceme Multi Jackpot System

Jackpot dilihat dari gabungan kartu pemain dengan kartu bandar. Bandar harus membeli jackpot sebanyak jumlah player yang sedang duduk. Sebagai contoh bila terdapat 3 pemain duduk bermain, dan bandar memutuskan untuk membeli jackpot Rp 1.000, maka pada periode tersebut bandar akan membeli jackpot sebanyak 3xRp1.000 = Rp3.000.

Jackpot bukanlah suatu keharusan untuk dibeli, namun kami memberikan suatu fitur tambahan untuk member tercinta dari www.satriapoker.com.

Terdapat tiga pilihan harga jackpot yang bisa anda beli yaitu :100,500 dan 1000 rupiah.

Hadiah dari Multi jackpot system www.satriapoker.com

  1. Murni Kecil x 50 harga jackpot yang anda beli.
      (contoh:anda membeli 1000 maka:1000 X 50 = 50.000)
  2. Murni Besar x 50 harga jackpot yang anda beli
      (contoh:anda membeli 1000 maka:1000 X 50 = 50.000)
  3. BALAK x 200 harga jackpot yang anda beli
      (contoh:anda membeli 1000 maka:1000 X 200 = 200.000)
  4. ENAM DEWA x 6666 harga jackpot yang anda beli
      (contoh:anda membeli 1000 maka:1000 X 6666 = 6.666.000)

Demikian adalah penjelasan dari Multi Jackpot www.satriapoker.com terima kasih dan selamat bermain salam hoki dari kami

Ceme Jackpot Winner

TOP ENAM DEWA
No.TanggalNamaPriceWin
123/06 01:48IMAWAN21murni enam6,666,000
223/06 01:48DEDOY07murni enam6,666,000
323/06 01:42PILAS10murni enam666,600
423/06 01:40XFORMAT666murni enam6,666,000
523/06 01:18PIONIR22murni enam6,666,000
TOP BALAK
No.TanggalNamaPriceWin
123/06 01:58SUKIJAN855balak200,000
223/06 01:57HKY368balak200,000
323/06 01:57MAS9999JObalak200,000
423/06 01:57BINIRAJAbalak200,000
523/06 01:57Q_PAIRbalak200,000
LATEST JACKPOT
No.TanggalNamaPriceWin
123/06 01:58CENDET78murni besar50,000
223/06 01:58RAYAA05murni besar25,000
323/06 01:58ALINUNUmurni besar5,000
423/06 01:58SUKIJAN855balak200,000
523/06 01:57LUU_1122murni besar5,000
623/06 01:57MASBRAY461murni kecil5,000
723/06 01:57HKY368balak200,000
823/06 01:57RRH31murni kecil50,000
923/06 01:57SECESmurni kecil5,000
1023/06 01:57MAS9999JObalak200,000
1123/06 01:57BINIRAJAbalak200,000
1223/06 01:57SIMONE5murni kecil50,000
1323/06 01:57Q_PAIRbalak200,000
1423/06 01:57VICKY989balak200,000
1523/06 01:57JCKPT6666murni kecil25,000
1623/06 01:57SIKATT88murni kecil25,000
1723/06 01:57JCKPT6666murni kecil25,000
1823/06 01:57KEPITING55656balak20,000
1923/06 01:56ASSAS1NNmurni kecil5,000
2023/06 01:56ENDU898murni kecil25,000
2123/06 01:56KAKAP899murni besar50,000
2223/06 01:56YUDADATUNKmurni kecil5,000
2323/06 01:56BADAI_81murni besar5,000
2423/06 01:56ACEPQQmurni kecil50,000
2523/06 01:56REZA219murni kecil25,000
2623/06 01:56HAGAR6969murni kecil50,000
2723/06 01:56RHRH17murni kecil5,000
2823/06 01:56RAMDAN33murni kecil5,000
2923/06 01:56RHRH17murni kecil5,000
3023/06 01:56MANTANKU12murni kecil50,000
3123/06 01:56TOG19murni besar50,000
3223/06 01:56KUMBANG37murni besar50,000
3323/06 01:56LOLLYQYUmurni besar5,000
3423/06 01:56MRJ0K3Rmurni kecil50,000
3523/06 01:56CAKWE87murni kecil5,000
3623/06 01:56LEDHOT99murni kecil5,000
3723/06 01:56CIMOET1988murni kecil50,000
3823/06 01:56E7C77943balak200,000
3923/06 01:56RT_RMDNmurni kecil25,000
4023/06 01:56TANTIA11murni kecil50,000
4123/06 01:56PAULRAHMAAmurni kecil25,000
4223/06 01:55IMAWAN21murni kecil50,000
4323/06 01:55ABUBAKAR33murni kecil5,000
4423/06 01:55DAMSEX96murni kecil5,000
4523/06 01:55MZ0123murni kecil25,000
4623/06 01:55KEPITING55656murni besar5,000
4723/06 01:55KEPITING55656murni besar5,000
4823/06 01:55DAHLAN1121murni besar50,000
4923/06 01:55KARMA420murni besar25,000
5023/06 01:55ISNAN59murni besar50,000